sensor_id;sensor_type;location;lat;lon;timestamp;temperature;humidity
27162;DHT22;54464;50.558;9.704;2023-02-12T00:01:52;4.30;99.90
27162;DHT22;54464;50.558;9.704;2023-02-12T00:04:18;4.30;99.90
27162;DHT22;54464;50.558;9.704;2023-02-12T00:06:43;4.30;99.90
27162;DHT22;54464;50.558;9.704;2023-02-12T00:09:09;4.30;99.90
27162;DHT22;54464;50.558;9.704;2023-02-12T00:11:35;4.30;99.90
27162;DHT22;54464;50.558;9.704;2023-02-12T00:14:01;4.30;99.90
27162;DHT22;54464;50.558;9.704;2023-02-12T00:16:28;4.40;99.90
27162;DHT22;54464;50.558;9.704;2023-02-12T00:18:55;4.30;99.90
27162;DHT22;54464;50.558;9.704;2023-02-12T00:21:21;4.30;99.90
27162;DHT22;54464;50.558;9.704;2023-02-12T00:23:47;4.30;99.90
27162;DHT22;54464;50.558;9.704;2023-02-12T00:26:16;4.30;99.90
27162;DHT22;54464;50.558;9.704;2023-02-12T00:28:44;4.30;99.90
27162;DHT22;54464;50.558;9.704;2023-02-12T00:31:19;4.30;99.90
27162;DHT22;54464;50.558;9.704;2023-02-12T00:33:45;4.30;99.90
27162;DHT22;54464;50.558;9.704;2023-02-12T00:36:16;4.30;99.90
27162;DHT22;54464;50.558;9.704;2023-02-12T00:38:43;4.30;99.90
27162;DHT22;54464;50.558;9.704;2023-02-12T00:41:09;4.20;99.90
27162;DHT22;54464;50.558;9.704;2023-02-12T00:43:34;4.20;99.90
27162;DHT22;54464;50.558;9.704;2023-02-12T00:46:00;4.20;99.90
27162;DHT22;54464;50.558;9.704;2023-02-12T00:48:26;4.20;99.90
27162;DHT22;54464;50.558;9.704;2023-02-12T00:50:52;4.20;99.90
27162;DHT22;54464;50.558;9.704;2023-02-12T00:53:17;4.20;99.90
27162;DHT22;54464;50.558;9.704;2023-02-12T00:55:44;4.20;99.90
27162;DHT22;54464;50.558;9.704;2023-02-12T00:58:10;4.20;99.90
27162;DHT22;54464;50.558;9.704;2023-02-12T01:00:36;4.20;99.90
27162;DHT22;54464;50.558;9.704;2023-02-12T01:03:02;4.30;99.90
27162;DHT22;54464;50.558;9.704;2023-02-12T01:05:28;4.30;99.90
27162;DHT22;54464;50.558;9.704;2023-02-12T01:07:55;4.30;99.90
27162;DHT22;54464;50.558;9.704;2023-02-12T01:10:20;4.30;99.90
27162;DHT22;54464;50.558;9.704;2023-02-12T01:12:47;4.30;99.90
27162;DHT22;54464;50.558;9.704;2023-02-12T01:15:13;4.30;99.90
27162;DHT22;54464;50.558;9.704;2023-02-12T01:17:39;4.20;99.90
27162;DHT22;54464;50.558;9.704;2023-02-12T01:20:06;4.30;99.90
27162;DHT22;54464;50.558;9.704;2023-02-12T01:22:36;4.30;99.90
27162;DHT22;54464;50.558;9.704;2023-02-12T01:25:03;4.30;99.90
27162;DHT22;54464;50.558;9.704;2023-02-12T01:27:29;4.30;99.90
27162;DHT22;54464;50.558;9.704;2023-02-12T01:29:55;4.30;99.90
27162;DHT22;54464;50.558;9.704;2023-02-12T01:32:21;4.30;99.90
27162;DHT22;54464;50.558;9.704;2023-02-12T01:34:46;4.30;99.90
27162;DHT22;54464;50.558;9.704;2023-02-12T01:37:12;4.30;99.90
27162;DHT22;54464;50.558;9.704;2023-02-12T01:39:38;4.30;99.90
27162;DHT22;54464;50.558;9.704;2023-02-12T01:42:03;4.30;99.90
27162;DHT22;54464;50.558;9.704;2023-02-12T01:44:32;4.30;99.90
27162;DHT22;54464;50.558;9.704;2023-02-12T01:47:04;4.30;99.90
27162;DHT22;54464;50.558;9.704;2023-02-12T01:49:39;4.30;99.90
27162;DHT22;54464;50.558;9.704;2023-02-12T01:52:07;4.30;99.90
27162;DHT22;54464;50.558;9.704;2023-02-12T01:54:34;4.30;99.90
27162;DHT22;54464;50.558;9.704;2023-02-12T01:57:04;4.30;99.90
27162;DHT22;54464;50.558;9.704;2023-02-12T01:59:31;4.30;99.90
27162;DHT22;54464;50.558;9.704;2023-02-12T02:01:57;4.30;99.90
27162;DHT22;54464;50.558;9.704;2023-02-12T02:04:27;4.30;99.90
27162;DHT22;54464;50.558;9.704;2023-02-12T02:06:59;4.30;99.90
27162;DHT22;54464;50.558;9.704;2023-02-12T02:09:26;4.30;99.90
27162;DHT22;54464;50.558;9.704;2023-02-12T02:11:52;4.30;99.90
27162;DHT22;54464;50.558;9.704;2023-02-12T02:14:37;4.30;99.90
27162;DHT22;54464;50.558;9.704;2023-02-12T02:17:25;4.30;99.90
27162;DHT22;54464;50.558;9.704;2023-02-12T02:34:28;4.30;99.90
27162;DHT22;54464;50.558;9.704;2023-02-12T02:37:26;4.30;99.90
27162;DHT22;54464;50.558;9.704;2023-02-12T02:40:06;4.30;99.90
27162;DHT22;54464;50.558;9.704;2023-02-12T02:45:10;4.30;99.90
27162;DHT22;54464;50.558;9.704;2023-02-12T02:47:46;4.30;99.90
27162;DHT22;54464;50.558;9.704;2023-02-12T02:50:20;4.30;99.90
27162;DHT22;54464;50.558;9.704;2023-02-12T02:53:13;4.30;99.90
27162;DHT22;54464;50.558;9.704;2023-02-12T02:55:44;4.30;99.90
27162;DHT22;54464;50.558;9.704;2023-02-12T02:58:15;4.20;99.90
27162;DHT22;54464;50.558;9.704;2023-02-12T03:00:58;4.30;99.90
27162;DHT22;54464;50.558;9.704;2023-02-12T03:06:33;4.20;99.90
27162;DHT22;54464;50.558;9.704;2023-02-12T03:09:14;4.20;99.90
27162;DHT22;54464;50.558;9.704;2023-02-12T03:11:41;4.20;99.90
27162;DHT22;54464;50.558;9.704;2023-02-12T03:14:21;4.20;99.90
27162;DHT22;54464;50.558;9.704;2023-02-12T03:17:09;4.20;99.90
27162;DHT22;54464;50.558;9.704;2023-02-12T03:19:44;4.20;99.90
27162;DHT22;54464;50.558;9.704;2023-02-12T03:22:19;4.20;99.90
27162;DHT22;54464;50.558;9.704;2023-02-12T03:24:50;4.20;99.90
27162;DHT22;54464;50.558;9.704;2023-02-12T03:27:33;4.20;99.90
27162;DHT22;54464;50.558;9.704;2023-02-12T03:30:02;4.20;99.90
27162;DHT22;54464;50.558;9.704;2023-02-12T03:35:28;4.20;99.90
27162;DHT22;54464;50.558;9.704;2023-02-12T03:38:18;4.30;99.90
27162;DHT22;54464;50.558;9.704;2023-02-12T03:40:51;4.30;99.90
27162;DHT22;54464;50.558;9.704;2023-02-12T03:43:29;4.30;99.90
27162;DHT22;54464;50.558;9.704;2023-02-12T03:48:40;4.40;99.90
27162;DHT22;54464;50.558;9.704;2023-02-12T03:51:36;4.40;99.90
27162;DHT22;54464;50.558;9.704;2023-02-12T03:54:04;4.40;99.90
27162;DHT22;54464;50.558;9.704;2023-02-12T03:56:53;4.40;99.90
27162;DHT22;54464;50.558;9.704;2023-02-12T03:59:21;4.40;99.90
27162;DHT22;54464;50.558;9.704;2023-02-12T04:01:49;4.40;99.90
27162;DHT22;54464;50.558;9.704;2023-02-12T04:04:16;4.40;99.90
27162;DHT22;54464;50.558;9.704;2023-02-12T04:06:41;4.40;99.90
27162;DHT22;54464;50.558;9.704;2023-02-12T04:09:09;4.40;99.90
27162;DHT22;54464;50.558;9.704;2023-02-12T04:12:01;4.40;99.90
27162;DHT22;54464;50.558;9.704;2023-02-12T04:23:41;4.30;99.90
27162;DHT22;54464;50.558;9.704;2023-02-12T04:26:22;4.30;99.90
27162;DHT22;54464;50.558;9.704;2023-02-12T04:34:04;4.30;99.90
27162;DHT22;54464;50.558;9.704;2023-02-12T04:36:36;4.20;99.90
27162;DHT22;54464;50.558;9.704;2023-02-12T04:39:09;4.20;99.90
27162;DHT22;54464;50.558;9.704;2023-02-12T04:41:38;4.20;99.90
27162;DHT22;54464;50.558;9.704;2023-02-12T04:44:24;4.20;99.90
27162;DHT22;54464;50.558;9.704;2023-02-12T04:46:51;4.20;99.90
27162;DHT22;54464;50.558;9.704;2023-02-12T04:49:19;4.20;99.90
27162;DHT22;54464;50.558;9.704;2023-02-12T04:51:45;4.20;99.90
27162;DHT22;54464;50.558;9.704;2023-02-12T04:54:11;4.20;99.90
27162;DHT22;54464;50.558;9.704;2023-02-12T04:56:37;4.20;99.90
27162;DHT22;54464;50.558;9.704;2023-02-12T04:59:03;4.20;99.90
27162;DHT22;54464;50.558;9.704;2023-02-12T05:01:29;4.30;99.90
27162;DHT22;54464;50.558;9.704;2023-02-12T05:03:55;4.30;99.90
27162;DHT22;54464;50.558;9.704;2023-02-12T05:06:21;4.40;99.90
27162;DHT22;54464;50.558;9.704;2023-02-12T05:08:46;4.40;99.90
27162;DHT22;54464;50.558;9.704;2023-02-12T05:11:12;4.40;99.90
27162;DHT22;54464;50.558;9.704;2023-02-12T05:13:38;4.30;99.90
27162;DHT22;54464;50.558;9.704;2023-02-12T05:18:32;4.30;99.90
27162;DHT22;54464;50.558;9.704;2023-02-12T05:20:59;4.40;99.90
27162;DHT22;54464;50.558;9.704;2023-02-12T05:23:31;4.30;99.90
27162;DHT22;54464;50.558;9.704;2023-02-12T05:26:01;4.30;99.90
27162;DHT22;54464;50.558;9.704;2023-02-12T05:28:28;4.30;99.90
27162;DHT22;54464;50.558;9.704;2023-02-12T05:30:53;4.30;99.90
27162;DHT22;54464;50.558;9.704;2023-02-12T05:33:19;4.30;99.90
27162;DHT22;54464;50.558;9.704;2023-02-12T05:35:45;4.30;99.90
27162;DHT22;54464;50.558;9.704;2023-02-12T05:38:11;4.30;99.90
27162;DHT22;54464;50.558;9.704;2023-02-12T05:40:36;4.30;99.90
27162;DHT22;54464;50.558;9.704;2023-02-12T05:43:04;4.30;99.90
27162;DHT22;54464;50.558;9.704;2023-02-12T05:45:31;4.30;99.90
27162;DHT22;54464;50.558;9.704;2023-02-12T05:47:57;4.30;99.90
27162;DHT22;54464;50.558;9.704;2023-02-12T05:50:23;4.30;99.90
27162;DHT22;54464;50.558;9.704;2023-02-12T05:52:48;4.30;99.90
27162;DHT22;54464;50.558;9.704;2023-02-12T05:55:14;4.30;99.90
27162;DHT22;54464;50.558;9.704;2023-02-12T05:57:40;4.30;99.90
27162;DHT22;54464;50.558;9.704;2023-02-12T06:00:07;4.30;99.90
27162;DHT22;54464;50.558;9.704;2023-02-12T06:02:33;4.30;99.90
27162;DHT22;54464;50.558;9.704;2023-02-12T06:04:59;4.30;99.90
27162;DHT22;54464;50.558;9.704;2023-02-12T06:07:25;4.30;99.90
27162;DHT22;54464;50.558;9.704;2023-02-12T06:09:51;4.30;99.90
27162;DHT22;54464;50.558;9.704;2023-02-12T06:12:17;4.30;99.90
27162;DHT22;54464;50.558;9.704;2023-02-12T06:14:42;4.30;99.90
27162;DHT22;54464;50.558;9.704;2023-02-12T06:17:08;4.30;99.90
27162;DHT22;54464;50.558;9.704;2023-02-12T06:19:34;4.30;99.90
27162;DHT22;54464;50.558;9.704;2023-02-12T06:22:00;4.30;99.90
27162;DHT22;54464;50.558;9.704;2023-02-12T06:24:26;4.20;99.90
27162;DHT22;54464;50.558;9.704;2023-02-12T06:26:52;4.20;99.90
27162;DHT22;54464;50.558;9.704;2023-02-12T06:29:18;4.20;99.90
27162;DHT22;54464;50.558;9.704;2023-02-12T06:31:44;4.20;99.90
27162;DHT22;54464;50.558;9.704;2023-02-12T06:34:11;4.20;99.90
27162;DHT22;54464;50.558;9.704;2023-02-12T06:36:39;4.20;99.90
27162;DHT22;54464;50.558;9.704;2023-02-12T06:39:06;4.20;99.90
27162;DHT22;54464;50.558;9.704;2023-02-12T06:41:31;4.20;99.90
27162;DHT22;54464;50.558;9.704;2023-02-12T06:43:57;4.20;99.90
27162;DHT22;54464;50.558;9.704;2023-02-12T06:46:23;4.20;99.90
27162;DHT22;54464;50.558;9.704;2023-02-12T06:48:53;4.20;99.90
27162;DHT22;54464;50.558;9.704;2023-02-12T06:51:19;4.20;99.90
27162;DHT22;54464;50.558;9.704;2023-02-12T06:53:47;4.20;99.90
27162;DHT22;54464;50.558;9.704;2023-02-12T06:56:13;4.20;99.90
27162;DHT22;54464;50.558;9.704;2023-02-12T06:58:46;4.20;99.90
27162;DHT22;54464;50.558;9.704;2023-02-12T07:01:15;4.20;99.90
27162;DHT22;54464;50.558;9.704;2023-02-12T07:03:43;4.30;99.90
27162;DHT22;54464;50.558;9.704;2023-02-12T07:06:09;4.30;99.90
27162;DHT22;54464;50.558;9.704;2023-02-12T07:08:35;4.30;99.90
27162;DHT22;54464;50.558;9.704;2023-02-12T07:11:02;4.30;99.90
27162;DHT22;54464;50.558;9.704;2023-02-12T07:13:27;4.30;99.90
27162;DHT22;54464;50.558;9.704;2023-02-12T07:15:53;4.30;99.90
27162;DHT22;54464;50.558;9.704;2023-02-12T07:18:18;4.30;99.90
27162;DHT22;54464;50.558;9.704;2023-02-12T07:20:44;4.30;99.90
27162;DHT22;54464;50.558;9.704;2023-02-12T07:23:11;4.30;99.90
27162;DHT22;54464;50.558;9.704;2023-02-12T07:25:37;4.30;99.90
27162;DHT22;54464;50.558;9.704;2023-02-12T07:28:02;4.30;99.90
27162;DHT22;54464;50.558;9.704;2023-02-12T07:30:28;4.30;99.90
27162;DHT22;54464;50.558;9.704;2023-02-12T07:32:53;4.30;99.90
27162;DHT22;54464;50.558;9.704;2023-02-12T07:35:19;4.30;99.90
27162;DHT22;54464;50.558;9.704;2023-02-12T07:37:45;4.30;99.90
27162;DHT22;54464;50.558;9.704;2023-02-12T07:40:11;4.40;99.90
27162;DHT22;54464;50.558;9.704;2023-02-12T07:42:36;4.40;99.90
27162;DHT22;54464;50.558;9.704;2023-02-12T07:45:02;4.40;99.90
27162;DHT22;54464;50.558;9.704;2023-02-12T07:47:28;4.40;99.90
27162;DHT22;54464;50.558;9.704;2023-02-12T07:49:53;4.40;99.90
27162;DHT22;54464;50.558;9.704;2023-02-12T07:52:19;4.40;99.90
27162;DHT22;54464;50.558;9.704;2023-02-12T07:54:46;4.50;99.90
27162;DHT22;54464;50.558;9.704;2023-02-12T07:57:12;4.40;99.90
27162;DHT22;54464;50.558;9.704;2023-02-12T07:59:37;4.40;99.90
27162;DHT22;54464;50.558;9.704;2023-02-12T08:02:03;4.50;99.90
27162;DHT22;54464;50.558;9.704;2023-02-12T08:04:29;4.50;99.90
27162;DHT22;54464;50.558;9.704;2023-02-12T08:06:55;4.50;99.90
27162;DHT22;54464;50.558;9.704;2023-02-12T08:09:24;4.60;99.90
27162;DHT22;54464;50.558;9.704;2023-02-12T08:11:50;4.50;99.90
27162;DHT22;54464;50.558;9.704;2023-02-12T08:14:19;4.60;99.90
27162;DHT22;54464;50.558;9.704;2023-02-12T08:16:46;4.60;99.90
27162;DHT22;54464;50.558;9.704;2023-02-12T08:19:11;4.60;99.90
27162;DHT22;54464;50.558;9.704;2023-02-12T08:21:38;4.60;99.90
27162;DHT22;54464;50.558;9.704;2023-02-12T08:24:03;4.70;99.90
27162;DHT22;54464;50.558;9.704;2023-02-12T08:26:34;4.70;99.90
27162;DHT22;54464;50.558;9.704;2023-02-12T08:29:09;4.80;99.90
27162;DHT22;54464;50.558;9.704;2023-02-12T08:31:40;4.80;99.90
27162;DHT22;54464;50.558;9.704;2023-02-12T08:34:09;4.90;99.90
27162;DHT22;54464;50.558;9.704;2023-02-12T08:36:39;5.00;99.90
27162;DHT22;54464;50.558;9.704;2023-02-12T08:39:06;4.90;99.90
27162;DHT22;54464;50.558;9.704;2023-02-12T08:41:32;5.00;99.90
27162;DHT22;54464;50.558;9.704;2023-02-12T08:44:00;5.00;99.90
27162;DHT22;54464;50.558;9.704;2023-02-12T08:46:29;5.00;99.90
27162;DHT22;54464;50.558;9.704;2023-02-12T08:48:59;5.10;99.90
27162;DHT22;54464;50.558;9.704;2023-02-12T08:51:28;5.10;99.90
27162;DHT22;54464;50.558;9.704;2023-02-12T08:53:57;5.10;99.90
27162;DHT22;54464;50.558;9.704;2023-02-12T08:56:23;5.10;99.90
27162;DHT22;54464;50.558;9.704;2023-02-12T08:58:50;5.10;99.90
27162;DHT22;54464;50.558;9.704;2023-02-12T09:01:18;5.10;99.90
27162;DHT22;54464;50.558;9.704;2023-02-12T09:03:44;5.20;99.90
27162;DHT22;54464;50.558;9.704;2023-02-12T09:06:11;5.20;99.90
27162;DHT22;54464;50.558;9.704;2023-02-12T09:08:38;5.20;99.90
27162;DHT22;54464;50.558;9.704;2023-02-12T09:11:12;5.20;99.90
27162;DHT22;54464;50.558;9.704;2023-02-12T09:13:38;5.20;99.90
27162;DHT22;54464;50.558;9.704;2023-02-12T09:16:08;5.20;99.90
27162;DHT22;54464;50.558;9.704;2023-02-12T09:18:34;5.20;99.90
27162;DHT22;54464;50.558;9.704;2023-02-12T09:21:11;5.30;99.90
27162;DHT22;54464;50.558;9.704;2023-02-12T09:23:38;5.30;99.90
27162;DHT22;54464;50.558;9.704;2023-02-12T09:26:05;5.40;99.90
27162;DHT22;54464;50.558;9.704;2023-02-12T09:28:32;5.40;99.90
27162;DHT22;54464;50.558;9.704;2023-02-12T09:30:57;5.50;99.90
27162;DHT22;54464;50.558;9.704;2023-02-12T09:33:23;5.50;99.90
27162;DHT22;54464;50.558;9.704;2023-02-12T09:35:49;5.60;99.90
27162;DHT22;54464;50.558;9.704;2023-02-12T09:38:15;5.70;99.90
27162;DHT22;54464;50.558;9.704;2023-02-12T09:48:59;5.90;99.90
27162;DHT22;54464;50.558;9.704;2023-02-12T09:51:28;5.90;99.90
27162;DHT22;54464;50.558;9.704;2023-02-12T09:54:04;5.90;99.90
27162;DHT22;54464;50.558;9.704;2023-02-12T09:56:33;6.00;99.90
27162;DHT22;54464;50.558;9.704;2023-02-12T09:59:04;6.00;99.90
27162;DHT22;54464;50.558;9.704;2023-02-12T10:01:31;6.00;99.90
27162;DHT22;54464;50.558;9.704;2023-02-12T10:03:57;6.00;99.90
27162;DHT22;54464;50.558;9.704;2023-02-12T10:06:33;6.00;99.90
27162;DHT22;54464;50.558;9.704;2023-02-12T10:11:57;6.00;99.90
27162;DHT22;54464;50.558;9.704;2023-02-12T10:17:35;6.10;99.90
27162;DHT22;54464;50.558;9.704;2023-02-12T10:28:12;6.30;99.90
27162;DHT22;54464;50.558;9.704;2023-02-12T10:30:48;6.30;99.90
27162;DHT22;54464;50.558;9.704;2023-02-12T10:33:22;6.40;99.90
27162;DHT22;54464;50.558;9.704;2023-02-12T10:36:16;6.50;99.90
27162;DHT22;54464;50.558;9.704;2023-02-12T10:38:39;6.50;99.90
27162;DHT22;54464;50.558;9.704;2023-02-12T10:41:12;6.50;99.90
27162;DHT22;54464;50.558;9.704;2023-02-12T10:43:38;6.60;99.90
27162;DHT22;54464;50.558;9.704;2023-02-12T10:46:04;6.60;99.90
27162;DHT22;54464;50.558;9.704;2023-02-12T10:48:36;6.70;99.90
27162;DHT22;54464;50.558;9.704;2023-02-12T10:56:18;6.90;99.90
27162;DHT22;54464;50.558;9.704;2023-02-12T10:58:56;7.10;99.90
27162;DHT22;54464;50.558;9.704;2023-02-12T11:01:30;7.20;99.90
27162;DHT22;54464;50.558;9.704;2023-02-12T11:03:59;7.30;99.90
27162;DHT22;54464;50.558;9.704;2023-02-12T11:06:27;7.50;99.90
27162;DHT22;54464;50.558;9.704;2023-02-12T11:08:53;7.60;99.90
27162;DHT22;54464;50.558;9.704;2023-02-12T11:11:30;7.60;99.90
27162;DHT22;54464;50.558;9.704;2023-02-12T11:14:19;7.60;99.90
27162;DHT22;54464;50.558;9.704;2023-02-12T11:16:52;7.60;99.90
27162;DHT22;54464;50.558;9.704;2023-02-12T11:19:21;7.60;99.90
27162;DHT22;54464;50.558;9.704;2023-02-12T11:21:49;7.50;99.90
27162;DHT22;54464;50.558;9.704;2023-02-12T11:24:28;7.40;99.90
27162;DHT22;54464;50.558;9.704;2023-02-12T11:27:23;7.40;99.90
27162;DHT22;54464;50.558;9.704;2023-02-12T11:32:40;7.30;99.90
27162;DHT22;54464;50.558;9.704;2023-02-12T11:35:23;7.30;99.90
27162;DHT22;54464;50.558;9.704;2023-02-12T11:37:57;7.30;99.90
27162;DHT22;54464;50.558;9.704;2023-02-12T11:40:29;7.30;99.90
27162;DHT22;54464;50.558;9.704;2023-02-12T11:42:58;7.20;99.90
27162;DHT22;54464;50.558;9.704;2023-02-12T11:45:46;7.20;99.90
27162;DHT22;54464;50.558;9.704;2023-02-12T11:48:32;7.20;99.90
27162;DHT22;54464;50.558;9.704;2023-02-12T11:51:02;7.20;99.90
27162;DHT22;54464;50.558;9.704;2023-02-12T11:53:37;7.20;99.90
27162;DHT22;54464;50.558;9.704;2023-02-12T11:56:07;7.20;99.90
27162;DHT22;54464;50.558;9.704;2023-02-12T11:58:34;7.20;99.90
27162;DHT22;54464;50.558;9.704;2023-02-12T12:01:20;7.20;99.90
27162;DHT22;54464;50.558;9.704;2023-02-12T12:06:36;7.20;99.90
27162;DHT22;54464;50.558;9.704;2023-02-12T12:09:23;7.30;99.90
27162;DHT22;54464;50.558;9.704;2023-02-12T12:14:36;7.30;99.90
27162;DHT22;54464;50.558;9.704;2023-02-12T12:17:33;7.40;99.90
27162;DHT22;54464;50.558;9.704;2023-02-12T12:20:26;7.40;99.90
27162;DHT22;54464;50.558;9.704;2023-02-12T12:23:10;7.50;99.90
27162;DHT22;54464;50.558;9.704;2023-02-12T12:25:57;7.50;99.90
27162;DHT22;54464;50.558;9.704;2023-02-12T12:28:46;7.50;99.90
27162;DHT22;54464;50.558;9.704;2023-02-12T12:31:24;7.50;99.90
27162;DHT22;54464;50.558;9.704;2023-02-12T12:33:54;7.50;99.90
27162;DHT22;54464;50.558;9.704;2023-02-12T12:45:45;7.50;99.90
27162;DHT22;54464;50.558;9.704;2023-02-12T12:48:31;7.50;99.90
27162;DHT22;54464;50.558;9.704;2023-02-12T12:59:27;7.60;99.90
27162;DHT22;54464;50.558;9.704;2023-02-12T13:07:41;7.60;99.90
27162;DHT22;54464;50.558;9.704;2023-02-12T13:13:18;7.50;99.90
27162;DHT22;54464;50.558;9.704;2023-02-12T13:24:26;7.50;99.90
27162;DHT22;54464;50.558;9.704;2023-02-12T13:27:06;7.50;99.90
27162;DHT22;54464;50.558;9.704;2023-02-12T13:29:43;7.50;99.90
27162;DHT22;54464;50.558;9.704;2023-02-12T13:32:36;7.50;99.90
27162;DHT22;54464;50.558;9.704;2023-02-12T13:35:07;7.40;99.90
27162;DHT22;54464;50.558;9.704;2023-02-12T13:37:42;7.40;99.90
27162;DHT22;54464;50.558;9.704;2023-02-12T13:40:15;7.40;99.90
27162;DHT22;54464;50.558;9.704;2023-02-12T13:59:00;7.20;99.90
27162;DHT22;54464;50.558;9.704;2023-02-12T14:01:38;7.20;99.90
27162;DHT22;54464;50.558;9.704;2023-02-12T14:07:08;7.20;99.90
27162;DHT22;54464;50.558;9.704;2023-02-12T14:09:46;7.20;99.90
27162;DHT22;54464;50.558;9.704;2023-02-12T14:14:56;7.10;99.90
27162;DHT22;54464;50.558;9.704;2023-02-12T14:28:16;7.10;99.90
27162;DHT22;54464;50.558;9.704;2023-02-12T14:30:46;7.10;99.90
27162;DHT22;54464;50.558;9.704;2023-02-12T14:33:31;7.10;99.90
27162;DHT22;54464;50.558;9.704;2023-02-12T14:44:47;7.00;99.90
27162;DHT22;54464;50.558;9.704;2023-02-12T14:50:00;7.00;99.90
27162;DHT22;54464;50.558;9.704;2023-02-12T14:52:31;7.00;99.90
27162;DHT22;54464;50.558;9.704;2023-02-12T14:55:00;6.90;99.90
27162;DHT22;54464;50.558;9.704;2023-02-12T14:57:39;6.90;99.90
27162;DHT22;54464;50.558;9.704;2023-02-12T15:09:01;6.80;99.90
27162;DHT22;54464;50.558;9.704;2023-02-12T15:13:56;6.80;99.90
27162;DHT22;54464;50.558;9.704;2023-02-12T15:19:36;6.70;99.90
27162;DHT22;54464;50.558;9.704;2023-02-12T15:22:18;6.70;99.90
27162;DHT22;54464;50.558;9.704;2023-02-12T15:24:45;6.70;99.90
27162;DHT22;54464;50.558;9.704;2023-02-12T15:27:13;6.70;99.90
27162;DHT22;54464;50.558;9.704;2023-02-12T15:29:45;6.70;99.90
27162;DHT22;54464;50.558;9.704;2023-02-12T15:32:24;6.70;99.90
27162;DHT22;54464;50.558;9.704;2023-02-12T15:34:52;6.70;99.90
27162;DHT22;54464;50.558;9.704;2023-02-12T15:37:25;6.70;99.90
27162;DHT22;54464;50.558;9.704;2023-02-12T15:39:53;6.60;99.90
27162;DHT22;54464;50.558;9.704;2023-02-12T15:44:49;6.60;99.90
27162;DHT22;54464;50.558;9.704;2023-02-12T15:47:15;6.60;99.90
27162;DHT22;54464;50.558;9.704;2023-02-12T15:49:42;6.60;99.90
27162;DHT22;54464;50.558;9.704;2023-02-12T15:52:20;6.60;99.90
27162;DHT22;54464;50.558;9.704;2023-02-12T15:54:47;6.60;99.90
27162;DHT22;54464;50.558;9.704;2023-02-12T15:57:20;6.60;99.90
27162;DHT22;54464;50.558;9.704;2023-02-12T15:59:55;6.50;99.90
27162;DHT22;54464;50.558;9.704;2023-02-12T16:02:26;6.50;99.90
27162;DHT22;54464;50.558;9.704;2023-02-12T16:04:54;6.50;99.90
27162;DHT22;54464;50.558;9.704;2023-02-12T16:07:20;6.50;99.90
27162;DHT22;54464;50.558;9.704;2023-02-12T16:09:47;6.50;99.90
27162;DHT22;54464;50.558;9.704;2023-02-12T16:12:18;6.50;99.90
27162;DHT22;54464;50.558;9.704;2023-02-12T16:14:52;6.50;99.90
27162;DHT22;54464;50.558;9.704;2023-02-12T16:22:32;6.40;99.90
27162;DHT22;54464;50.558;9.704;2023-02-12T16:24:59;6.40;99.90
27162;DHT22;54464;50.558;9.704;2023-02-12T16:27:33;6.40;99.90
27162;DHT22;54464;50.558;9.704;2023-02-12T16:30:02;6.40;99.90
27162;DHT22;54464;50.558;9.704;2023-02-12T16:32:40;6.40;99.90
27162;DHT22;54464;50.558;9.704;2023-02-12T16:40:16;6.30;99.90
27162;DHT22;54464;50.558;9.704;2023-02-12T16:48:22;6.40;99.90
27162;DHT22;54464;50.558;9.704;2023-02-12T16:50:59;6.30;99.90
27162;DHT22;54464;50.558;9.704;2023-02-12T16:55:59;6.40;99.90
27162;DHT22;54464;50.558;9.704;2023-02-12T16:58:25;6.40;99.90
27162;DHT22;54464;50.558;9.704;2023-02-12T17:00:53;6.30;99.90
27162;DHT22;54464;50.558;9.704;2023-02-12T17:03:19;6.30;99.90
27162;DHT22;54464;50.558;9.704;2023-02-12T17:05:45;6.30;99.90
27162;DHT22;54464;50.558;9.704;2023-02-12T17:08:17;6.30;99.90
27162;DHT22;54464;50.558;9.704;2023-02-12T17:10:43;6.30;99.90
27162;DHT22;54464;50.558;9.704;2023-02-12T17:13:10;6.30;99.90
27162;DHT22;54464;50.558;9.704;2023-02-12T17:15:58;6.30;99.90
27162;DHT22;54464;50.558;9.704;2023-02-12T17:18:26;6.30;99.90
27162;DHT22;54464;50.558;9.704;2023-02-12T17:23:31;6.30;99.90
27162;DHT22;54464;50.558;9.704;2023-02-12T17:25:57;6.30;99.90
27162;DHT22;54464;50.558;9.704;2023-02-12T17:28:23;6.30;99.90
27162;DHT22;54464;50.558;9.704;2023-02-12T17:30:50;6.30;99.90
27162;DHT22;54464;50.558;9.704;2023-02-12T17:33:16;6.30;99.90
27162;DHT22;54464;50.558;9.704;2023-02-12T17:35:42;6.30;99.90
27162;DHT22;54464;50.558;9.704;2023-02-12T17:38:08;6.20;99.90
27162;DHT22;54464;50.558;9.704;2023-02-12T17:40:35;6.20;99.90
27162;DHT22;54464;50.558;9.704;2023-02-12T17:43:02;6.30;99.90
27162;DHT22;54464;50.558;9.704;2023-02-12T17:45:27;6.30;99.90
27162;DHT22;54464;50.558;9.704;2023-02-12T17:47:53;6.30;99.90
27162;DHT22;54464;50.558;9.704;2023-02-12T17:50:19;6.20;99.90
27162;DHT22;54464;50.558;9.704;2023-02-12T17:52:45;6.30;99.90
27162;DHT22;54464;50.558;9.704;2023-02-12T17:55:11;6.20;99.90
27162;DHT22;54464;50.558;9.704;2023-02-12T17:57:38;6.20;99.90
27162;DHT22;54464;50.558;9.704;2023-02-12T18:00:05;6.20;99.90
27162;DHT22;54464;50.558;9.704;2023-02-12T18:02:31;6.20;99.90
27162;DHT22;54464;50.558;9.704;2023-02-12T18:04:57;6.20;99.90
27162;DHT22;54464;50.558;9.704;2023-02-12T18:07:22;6.20;99.90
27162;DHT22;54464;50.558;9.704;2023-02-12T18:09:48;6.20;99.90
27162;DHT22;54464;50.558;9.704;2023-02-12T18:12:14;6.20;99.90
27162;DHT22;54464;50.558;9.704;2023-02-12T18:14:39;6.20;99.90
27162;DHT22;54464;50.558;9.704;2023-02-12T18:17:05;6.20;99.90
27162;DHT22;54464;50.558;9.704;2023-02-12T18:19:31;6.10;99.90
27162;DHT22;54464;50.558;9.704;2023-02-12T18:21:56;6.10;99.90
27162;DHT22;54464;50.558;9.704;2023-02-12T18:24:22;6.10;99.90
27162;DHT22;54464;50.558;9.704;2023-02-12T18:26:48;6.10;99.90
27162;DHT22;54464;50.558;9.704;2023-02-12T18:29:13;6.10;99.90
27162;DHT22;54464;50.558;9.704;2023-02-12T18:31:39;6.10;99.90
27162;DHT22;54464;50.558;9.704;2023-02-12T18:34:06;6.10;99.90
27162;DHT22;54464;50.558;9.704;2023-02-12T18:36:32;6.10;99.90
27162;DHT22;54464;50.558;9.704;2023-02-12T18:38:58;6.10;99.90
27162;DHT22;54464;50.558;9.704;2023-02-12T18:41:30;6.00;99.90
27162;DHT22;54464;50.558;9.704;2023-02-12T18:43:57;6.00;99.90
27162;DHT22;54464;50.558;9.704;2023-02-12T18:46:25;6.00;99.90
27162;DHT22;54464;50.558;9.704;2023-02-12T18:48:52;6.00;99.90
27162;DHT22;54464;50.558;9.704;2023-02-12T18:51:20;6.00;99.90
27162;DHT22;54464;50.558;9.704;2023-02-12T18:53:47;6.00;99.90
27162;DHT22;54464;50.558;9.704;2023-02-12T18:56:13;6.10;99.90
27162;DHT22;54464;50.558;9.704;2023-02-12T18:58:39;6.00;99.90
27162;DHT22;54464;50.558;9.704;2023-02-12T19:01:32;6.00;99.90
27162;DHT22;54464;50.558;9.704;2023-02-12T19:04:00;6.00;99.90
27162;DHT22;54464;50.558;9.704;2023-02-12T19:06:28;6.00;99.90
27162;DHT22;54464;50.558;9.704;2023-02-12T19:08:58;6.00;99.90
27162;DHT22;54464;50.558;9.704;2023-02-12T19:11:25;6.00;99.90
27162;DHT22;54464;50.558;9.704;2023-02-12T19:13:51;6.00;99.90
27162;DHT22;54464;50.558;9.704;2023-02-12T19:16:18;6.00;99.90
27162;DHT22;54464;50.558;9.704;2023-02-12T19:18:50;6.00;99.90